Airfield :
LOGIN :

Register | Disclaimer

   EN    FR    IT 

 










Legend :    VFR   Marginal VFR   IFR   Intensive IFR   Very Intensive IFR
Visi :
Ceiling :
>= 8 km
>= 3000ft
5 to 8 km
1000 to 3000 ft
1500m to 5 km
500 to 1000 ft
800 to 1500m
200 to 500 ft
< 800m
< 200 ft
Symbols :   Thunderstorms  Fog  Heavy snow  Heavy precipitations  Wind > 20 kt
SIGMETs :     Misc.  Thunderstorms  Icing  Turbulence  Mountain Waves  Volcanic Ashes






- Airport Elevation : 80 ft
- IATA code : LPL


EGGP - Liverpool John Lennon

CURRENT METAR :
  • 150950Z VRB02KT 7000 BKN006 11/11 Q1003

EXPIRED METARs :
  • 150920Z VRB02KT 7000 OVC005 11/11 Q1003
  • 150850Z VRB02KT 5000 BR OVC005 11/11 Q1003
  • 150820Z VRB02KT 5000 BR SCT003 OVC010 10/10 Q1003
  • 150750Z VRB02KT 5000 BR SCT006 BKN012 11/11 Q1003
  • 150720Z VRB02KT 6000 SCT009 BKN016 10/10 Q1003

TAF AMD TAF EGGP
Valid from the 15 at 08:00 until the 16 at 06:00 UTC


150844Z 1508/1606 15006KT 5000 BR BKN005
BECMG 1509/1512 9999 NSW FEW009 SCT025
BECMG 1600/1603 15016KT
TEMPO 1603/1606 6000 RA BKN010
PROB30
TEMPO 1603/1606 BKN008
ATIS : +44 151 907 2000 (option 5 or ext 5150)
Met : +44 871 750 5150



MET'MAP, your aeronautical weather chart ! - Copyright ORBIFLY December 2007 - Disclaimer

ORBIFLY MET'MAP TEAM :

Programming & Development : Alexandra Zaïnal
Concept & Development : Baudouin d'Aumeries
Co-Development & Prog : Marc-Olivier Méhu
Technical & hardware support : Manuel Goepfert

Contact : metmap@orbifly.com




SOURCES & CREDITS :

   NOAA